Relevés horaires La Dôle (Suisse)


Relevés horaires à La Dôle - Samedi 05 Janv. 2008
Heure UTC1 Température [°C] Vent [km/h] Hum. [%] Pres.4 [hPa] Visi. [Km] Nébu. [octa] Préc.5 [mm] Cond.
2m. Res. Ros. Dir.2 Vit. Moy. Raf.3
23:00 -0.4 -9.1 -0.8 SO 55.6 55.6 85.2 97 850(-1.6/3h) -- -- -- --
22:00 -0.6 -9.2 -0.9 SSO 53.7 57.4 83.3 98 850(-1.5/3h) -- -- -- --
21:00 -0.5 -8.8 -0.7 SSO 50.0 57.4 83.3 99 850(-1.6/3h) -- -- -- --
20:00 -0.4 -8.8 -0.6 SSO 51.9 55.6 79.6 99 850(-1.5/3h) -- -- -- --
19:00 0.1 -8.2 -0.3 SO 53.7 55.6 77.8 97 850(-2.0/3h) -- -- -- --
18:00 -0.1 -8.3 -0.3 SO 50.0 61.1 90.7 99 850(-1.4/3h) -- -- -- --
17:00 0.0 -8.3 -0.4 SSO 51.9 51.9 72.2 97 850(-1.1/3h) -- -- -- --
16:00 -0.4 -7.3 -0.8 SO 33.3 44.4 64.8 97 850(-0.2/3h) -- -- -- --
15:00 -0.5 -7.6 -1.1 OSO 35.2 61.1 90.7 96 850(-0.2/3h) -- -- -- --
14:00 -0.3 -7.7 -0.6 OSO 38.9 44.4 72.2 98 850(-0.2/3h) -- -- -- --
13:00 -0.2 -7.7 -0.6 OSO 40.7 50.0 72.2 97 850(-0.3/3h) -- -- -- --
12:00 0.0 -7.9 -0.6 SO 46.3 63.0 90.7 96 850(0.2/3h) -- -- -- --
11:00 -0.3 -8.7 -0.7 OSO 51.9 61.1 90.7 97 850(0.3/3h) -- -- -- --
10:00 0.6 -7.3 -0.5 SO 50.0 61.1 90.7 92 850(0.5/3h) -- -- -- --
09:00 0.0 -8.6 -0.5 SSO 57.4 63.0 81.5 96 850(0.4/3h) -- -- -- --
08:00 0.2 -8.3 -0.3 SSO 57.4 57.4 77.8 96 850(0.2/3h) -- -- -- --
07:00 0.3 -7.5 -0.5 SO 46.3 63.0 81.5 94 850(-0.1/3h) -- -- -- --
06:00 0.1 -8.4 -0.3 SSO 55.6 63.0 81.5 97 850(-0.5/3h) -- -- -- --
05:00 -1.2 -9.9 -2.1 SSO 51.9 51.9 72.2 94 850(-1.1/3h) -- -- -- --
04:00 -0.6 -8.7 -4.4 SSO 46.3 46.3 64.8 75 850(-0.8/3h) -- -- -- --
03:00 -0.3 -8.3 -4.6 S 46.3 46.3 59.3 73 850(-0.8/3h) -- -- -- --
02:00 -0.3 -7.5 -1.8 S 37.0 42.6 55.6 90 850(-0.2/3h) -- -- -- --
01:00 -0.4 -6.8 -2.5 S 27.8 42.6 55.6 86 850(0.3/3h) -- -- -- --
00:00 -0.4 -7.7 -0.9 SSO 37.0 44.4 61.1 96 850(0.9/3h) -- -- -- --

1 Coordinated Universal Time. Actuellement il est 12:00 locale et 10:00 UTC.

2 Le vent souffle depuis la direction indiquée vers la direction oposée.

3 Les rafales max. sont disponible 40 min après l'heure du relevé.

4 Pour les stations d'altitude (plus de 600m) le géopotentiel du niveau le plus proche de la pression obligatoire est indiqué.

5 Les stations disposant d'un diffuseur peuvent indiquer "trace". Cela signifie que des précipitations ont touchés le sol mais que la quantité est inférieure à 0.1 mm.

Copyright

Les données affichées sur cette page sont la propriété exclusive de Météo Suisse.

Récapitulatif de la journée
Température [°C] Vent [km/h] Ensoleillement4 [h] Precipitations totale5 [mm] Pression [Hpa]
Min1 Max.2 Moy.3 Max. Min Max.
-1.3 0.8 54.2 90.7 0 h 0 min 0 850.0 850.0

1 Température minimale relevée entre 18:00 UTC la veille et 18:00 UTC le jour donné.

2 Température maximale relevée entre 06:00 UTC le jour donné et 06:00 UTC le lendemain.

3 Vent moyen de la journée basé sur les relevés horaires.

4 Ensoleillement en heures relevé entre 06:00 UTC la veille et 06:00 UTC le jour donné.

5 Précipitations totales tombées entre 06:00 UTC la jour donné et 06:00 UTC le lendemain.

Graphiques horaires